Saturday, December 15, 2018, 1:56 PM GMT
Back to Local

CWIS, Charlevoix CS , Que.

Location: , , Canada Lat: 47.283
Local Time: 1:56 PM GMT (13:56 GMT) Lon: -70.633
Time Zone: GMT Elev: 2358 ft

Show me the last for .
Show Decoded

2018-12-15 13:00 METAR CWIS 151300Z AUTO 26006KT M02/M04 RMK AO1 SOG 98 3020 SLP160 T10241036 =
2018-12-15 12:00 METAR CWIS 151200Z AUTO 25004KT M03/M04 RMK AO1 SOG 98 3011 SLP151 T10271038 =
2018-12-15 11:00 METAR CWIS 151100Z AUTO 26003KT M03/M04 RMK AO1 SOG 98 3008 SLP145 T10281036 =
2018-12-15 10:00 METAR CWIS 151000Z AUTO 26003KT M03/M04 RMK AO1 SOG 99 1005 SLP139 T10271036 =
2018-12-15 09:00 METAR CWIS 150900Z AUTO 26003KT M02/M03 RMK AO1 SOG 99 1009 SLP139 T10151033 =
2018-12-15 08:00 METAR CWIS 150800Z AUTO 26004KT M02/M02 RMK AO1 SOG 99 3001 SLP137 T10201023 =
2018-12-15 07:00 METAR CWIS 150700Z AUTO 25005G15KT M02/M02 RMK AO1 SOG 99 5003 SLP134 T10191021
                 =
2018-12-15 06:00 METAR CWIS 150600Z AUTO 25006KT M02/M02 RMK AO1 SOG 99 8012 SLP130 T10211023 =
2018-12-15 05:00 METAR CWIS 150500Z AUTO 26007KT M02/M02 RMK AO1 SOG 99 6019 SLP137 T10211023 =
2018-12-15 04:00 METAR CWIS 150400Z AUTO 25007KT M02/M02 RMK AO1 SOG 99 6029 SLP138 T10231015 =
2018-12-15 02:00 METAR CWIS 150200Z AUTO 24008G16KT M02/M02 RMK AO1 SOG 99 8023 SLP158 T10211023
                 =
2018-12-15 01:00 METAR CWIS 150100Z AUTO 23007G16KT M02/M02 RMK AO1 SOG 99 6019 PK WND 23021/0039
                 SLP170 T10201021 =
2018-12-15 00:00 METAR CWIS 150000Z AUTO 23007G15KT M02/M02 RMK AO1 SOG 99 8016 SLP177 T10191020
                 50013 =
2018-12-14 23:00 METAR CWIS 142300Z AUTO 22007KT M02/M02 RMK AO1 SOG 99 6020 SLP184 T10211022
                 50013 =
2018-12-14 22:00 METAR CWIS 142200Z AUTO 22006KT M02/M02 RMK AO1 6PAST HR SOG 99 7016 SLP192
                 P0002 T10231015 50013 =
2018-12-14 21:00 METAR CWIS 142100Z AUTO 20007KT M03/M03 RMK AO1 SOG 100 8020 SLP196 T10291031
                 50007 =
2018-12-14 20:00 METAR CWIS 142000Z AUTO 21007KT M03/M03 RMK AO1 7PAST HR SOG 99 6018 SLP207
                 P0003 T10311034 50007 =
2018-12-14 19:00 METAR CWIS 141900Z AUTO 22007KT M03/M04 RMK AO1 SOG 99 6025 SLP212 T10251037 =
2018-12-14 18:00 METAR CWIS 141800Z AUTO 23006KT M04/M04 RMK AO1 SOG 99 6030 SLP221 T10411044 =
2018-12-14 17:00 METAR CWIS 141700Z AUTO 23006KT M04/M04 RMK AO1 SOG 99 8029 SLP231 T10401043 =
2018-12-14 16:00 METAR CWIS 141600Z AUTO 24006KT M04/M05 RMK AO1 SOG 99 8021 SLP244 T10351047 =
2018-12-14 15:00 METAR CWIS 141500Z AUTO 24004KT M04/M04 RMK AO1 SOG 98 8007 SLP258 T10421035 =
2018-12-14 14:00 METAR CWIS 141400Z AUTO 24004KT M05/M05 RMK AO1 SOG 98 6006 SLP265 T10461049 =

Support USWX by starting your Amazon purchase here.